createdAt,value
2024-01-28T00:00:50.064Z,-1.00
2024-01-28T00:04:13.618Z,-1.00
2024-01-28T00:07:35.343Z,-1.00
2024-01-28T00:10:56.981Z,-1.10
2024-01-28T00:14:18.629Z,-1.10
2024-01-28T00:17:40.326Z,-1.10
2024-01-28T00:21:03.419Z,-1.10
2024-01-28T00:24:25.264Z,-1.20
2024-01-28T00:27:47.013Z,-1.30
2024-01-28T00:31:09.040Z,-1.30
2024-01-28T00:34:31.021Z,-1.30
2024-01-28T00:37:54.055Z,-1.30
2024-01-28T00:41:20.844Z,-1.30
2024-01-28T00:44:42.570Z,-1.30
2024-01-28T00:48:04.593Z,-1.40
2024-01-28T00:51:26.393Z,-1.40
2024-01-28T00:54:49.448Z,-1.30
2024-01-28T00:58:11.094Z,-1.40
2024-01-28T01:01:32.804Z,-1.50
2024-01-28T01:04:54.475Z,-1.60
2024-01-28T01:08:16.127Z,-1.60
2024-01-28T01:11:39.134Z,-1.50
2024-01-28T01:15:00.820Z,-1.60
2024-01-28T01:18:22.526Z,-1.60
2024-01-28T01:21:44.551Z,-1.60
2024-01-28T01:25:06.727Z,-1.80
2024-01-28T01:28:29.727Z,-1.90
2024-01-28T01:31:51.405Z,-1.90
2024-01-28T01:35:13.235Z,-1.90
2024-01-28T01:38:34.935Z,-1.90
2024-01-28T01:41:56.559Z,-1.90
2024-01-28T01:45:20.144Z,-1.90
2024-01-28T01:48:42.790Z,-1.90
2024-01-28T01:52:05.320Z,-2.00
2024-01-28T01:55:27.173Z,-2.00
2024-01-28T01:58:49.378Z,-1.80
2024-01-28T02:02:12.764Z,-1.70
2024-01-28T02:05:34.726Z,-1.80
2024-01-28T02:08:56.908Z,-1.80
2024-01-28T02:12:18.767Z,-1.90
2024-01-28T02:15:40.544Z,-2.00
2024-01-28T02:19:03.675Z,-2.00
2024-01-28T02:22:25.542Z,-2.10
2024-01-28T02:25:48.597Z,-2.10
2024-01-28T02:29:10.260Z,-2.00
2024-01-28T02:32:33.177Z,-2.00
2024-01-28T02:35:55.461Z,-2.10
2024-01-28T02:39:17.161Z,-2.20
2024-01-28T02:42:40.266Z,-2.20
2024-01-28T02:46:02.099Z,-2.20
2024-01-28T02:49:24.212Z,-2.10
2024-01-28T02:52:45.892Z,-2.10
2024-01-28T02:56:07.667Z,-2.00
2024-01-28T02:59:30.652Z,-2.10
2024-01-28T03:02:52.270Z,-2.00
2024-01-28T03:06:13.905Z,-2.10
2024-01-28T03:09:35.679Z,-2.00
2024-01-28T03:12:57.368Z,-2.00
2024-01-28T03:16:20.352Z,-2.10
2024-01-28T03:19:41.968Z,-2.10
2024-01-28T03:23:03.682Z,-2.10
2024-01-28T03:26:25.302Z,-2.10
2024-01-28T03:29:46.911Z,-2.10
2024-01-28T03:33:10.017Z,-2.10
2024-01-28T03:36:31.664Z,-2.10
2024-01-28T03:39:53.350Z,-2.20
2024-01-28T03:43:14.967Z,-2.30
2024-01-28T03:46:37.058Z,-2.40
2024-01-28T03:50:00.088Z,-2.50
2024-01-28T03:53:21.791Z,-2.40
2024-01-28T03:56:43.413Z,-2.40
2024-01-28T04:00:05.768Z,-2.50
2024-01-28T04:03:27.466Z,-2.50
2024-01-28T04:06:50.479Z,-2.50
2024-01-28T04:10:14.811Z,-2.50
2024-01-28T04:13:36.462Z,-2.60
2024-01-28T04:16:58.071Z,-2.70
2024-01-28T04:20:19.671Z,-2.70
2024-01-28T04:23:42.643Z,-2.80
2024-01-28T04:27:04.460Z,-2.70
2024-01-28T04:30:26.189Z,-2.60
2024-01-28T04:33:48.032Z,-2.60
2024-01-28T04:37:12.682Z,-2.60
2024-01-28T04:40:36.688Z,-2.60
2024-01-28T04:43:58.325Z,-2.70
2024-01-28T04:47:19.996Z,-2.70
2024-01-28T04:50:42.094Z,-2.80
2024-01-28T04:54:03.960Z,-2.90
2024-01-28T04:57:26.920Z,-2.80
2024-01-28T05:00:48.679Z,-2.90
2024-01-28T05:04:10.487Z,-2.90
2024-01-28T05:07:32.178Z,-2.70
2024-01-28T05:10:53.827Z,-2.70
2024-01-28T05:14:16.798Z,-2.70
2024-01-28T05:17:38.461Z,-2.80
2024-01-28T05:21:00.130Z,-2.90
2024-01-28T05:24:21.800Z,-3.00
2024-01-28T05:27:43.495Z,-3.00
2024-01-28T05:31:09.139Z,-3.00
2024-01-28T05:34:31.141Z,-2.90
2024-01-28T05:37:52.809Z,-3.00
2024-01-28T05:41:14.553Z,-3.10
2024-01-28T05:44:36.199Z,-3.10
2024-01-28T05:47:59.220Z,-3.20
2024-01-28T05:51:20.879Z,-3.20
2024-01-28T05:54:42.817Z,-3.10
2024-01-28T05:58:04.811Z,-3.10
2024-01-28T06:01:26.551Z,-3.10
2024-01-28T06:04:49.657Z,-3.00
2024-01-28T06:08:11.336Z,-3.00
2024-01-28T06:11:32.996Z,-3.00
2024-01-28T06:14:54.733Z,-3.00
2024-01-28T06:18:16.405Z,-2.90
2024-01-28T06:21:39.442Z,-2.90
2024-01-28T06:25:01.895Z,-2.80
2024-01-28T06:28:23.552Z,-2.80
2024-01-28T06:31:45.234Z,-2.80
2024-01-28T06:35:08.608Z,-2.80
2024-01-28T06:38:31.740Z,-2.90
2024-01-28T06:41:53.363Z,-3.00
2024-01-28T06:45:15.050Z,-3.00
2024-01-28T06:48:36.799Z,-3.10
2024-01-28T06:51:58.545Z,-3.00
2024-01-28T06:55:21.565Z,-3.00
2024-01-28T06:58:43.252Z,-3.00
2024-01-28T07:02:04.881Z,-3.00
2024-01-28T07:05:26.501Z,-3.10
2024-01-28T07:08:48.159Z,-3.00
2024-01-28T07:12:11.206Z,-3.00
2024-01-28T07:15:32.960Z,-3.00
2024-01-28T07:18:54.714Z,-3.00
2024-01-28T07:22:16.466Z,-3.00
2024-01-28T07:25:38.106Z,-2.90
2024-01-28T07:29:02.001Z,-2.80
2024-01-28T07:32:23.937Z,-2.80
2024-01-28T07:35:45.569Z,-2.80
2024-01-28T07:39:07.242Z,-2.80
2024-01-28T07:42:28.880Z,-2.70
2024-01-28T07:45:52.117Z,-2.60
2024-01-28T07:49:13.974Z,-2.60
2024-01-28T07:52:35.688Z,-2.60
2024-01-28T07:55:58.613Z,-2.60
2024-01-28T07:59:20.229Z,-2.50
2024-01-28T08:02:43.207Z,-2.40
2024-01-28T08:06:05.225Z,-2.30
2024-01-28T08:09:26.961Z,-2.30
2024-01-28T08:12:48.709Z,-2.20
2024-01-28T08:16:10.444Z,-2.10
2024-01-28T08:19:33.840Z,-2.00
2024-01-28T08:22:55.696Z,-1.90
2024-01-28T08:26:17.335Z,-1.80
2024-01-28T08:29:38.949Z,-1.60
2024-01-28T08:33:00.642Z,-1.40
2024-01-28T08:36:23.842Z,-1.10
2024-01-28T08:39:45.544Z,-0.60
2024-01-28T08:43:07.194Z,-0.10
2024-01-28T08:46:28.859Z,2.30
2024-01-28T08:49:51.444Z,5.70
2024-01-28T08:53:14.419Z,8.60
2024-01-28T08:56:36.024Z,9.80
2024-01-28T08:59:57.924Z,10.70
2024-01-28T09:03:19.645Z,11.80
2024-01-28T09:06:41.415Z,12.60
2024-01-28T09:10:04.677Z,13.90
2024-01-28T09:13:26.281Z,14.20
2024-01-28T09:16:47.908Z,14.70
2024-01-28T09:20:09.941Z,14.70
2024-01-28T09:23:31.549Z,14.40
2024-01-28T09:26:54.546Z,15.10
2024-01-28T09:30:16.375Z,15.50
2024-01-28T09:33:38.120Z,16.10
2024-01-28T09:36:59.957Z,16.10
2024-01-28T09:40:21.603Z,13.70
2024-01-28T09:43:44.696Z,10.10
2024-01-28T09:47:06.501Z,7.30
2024-01-28T09:50:28.210Z,5.70
2024-01-28T09:53:49.881Z,4.60
2024-01-28T09:57:12.134Z,3.80
2024-01-28T10:00:35.450Z,3.30
2024-01-28T10:03:58.073Z,3.00
2024-01-28T10:07:19.920Z,2.80
2024-01-28T10:10:41.608Z,2.60
2024-01-28T10:14:03.213Z,2.60
2024-01-28T10:17:26.190Z,2.50
2024-01-28T10:20:49.160Z,2.50
2024-01-28T10:24:11.325Z,2.50
2024-01-28T10:27:35.761Z,2.50
2024-01-28T10:30:57.739Z,2.50
2024-01-28T10:34:20.867Z,2.60
2024-01-28T10:37:48.761Z,2.80
2024-01-28T10:41:11.321Z,2.80
2024-01-28T10:44:37.378Z,2.80
2024-01-28T10:48:06.243Z,2.90
2024-01-28T10:51:30.279Z,2.90
2024-01-28T10:54:51.962Z,3.10
2024-01-28T10:58:13.613Z,3.20
2024-01-28T11:01:35.778Z,3.30
2024-01-28T11:04:57.570Z,3.40
2024-01-28T11:08:21.278Z,3.50
2024-01-28T11:11:43.450Z,3.60
2024-01-28T11:15:05.568Z,3.70
2024-01-28T11:18:31.129Z,3.80
2024-01-28T11:21:53.354Z,3.90
2024-01-28T11:25:18.389Z,4.00
2024-01-28T11:28:46.668Z,4.20
2024-01-28T11:32:08.785Z,4.40
2024-01-28T11:35:30.552Z,4.60
2024-01-28T11:38:56.371Z,4.70
2024-01-28T11:42:19.706Z,4.80
2024-01-28T11:45:41.631Z,5.00
2024-01-28T11:49:03.631Z,5.10
2024-01-28T11:52:25.329Z,5.30
2024-01-28T11:55:46.980Z,5.40
2024-01-28T11:59:11.053Z,5.50
2024-01-28T12:02:33.060Z,5.60
2024-01-28T12:05:55.832Z,5.70
2024-01-28T12:09:17.716Z,5.70
2024-01-28T12:12:40.198Z,5.90
2024-01-28T12:16:03.494Z,6.00
2024-01-28T12:19:25.464Z,6.10
2024-01-28T12:22:49.648Z,6.30
2024-01-28T12:26:11.412Z,6.30
2024-01-28T12:29:33.073Z,6.50
2024-01-28T12:32:56.342Z,6.60
2024-01-28T12:36:19.350Z,6.70
2024-01-28T12:39:41.281Z,6.80
2024-01-28T12:43:03.103Z,6.90
2024-01-28T12:46:24.768Z,7.10
2024-01-28T12:49:47.810Z,7.10
2024-01-28T12:53:09.478Z,7.20
2024-01-28T12:56:31.113Z,7.30
2024-01-28T12:59:52.757Z,7.40
2024-01-28T13:03:14.675Z,7.50
2024-01-28T13:06:40.846Z,7.70
2024-01-28T13:10:02.714Z,7.80
2024-01-28T13:13:24.479Z,8.00
2024-01-28T13:16:46.618Z,8.10
2024-01-28T13:20:09.302Z,8.20
2024-01-28T13:23:32.344Z,8.20
2024-01-28T13:26:53.962Z,8.20
2024-01-28T13:30:15.795Z,8.20
2024-01-28T13:33:37.518Z,8.20
2024-01-28T13:37:00.299Z,8.20
2024-01-28T13:40:23.366Z,8.10
2024-01-28T13:43:44.965Z,8.00
2024-01-28T13:47:06.640Z,8.00
2024-01-28T13:50:28.374Z,7.90
2024-01-28T13:53:50.071Z,8.00
2024-01-28T13:57:13.229Z,8.20
2024-01-28T14:00:34.939Z,8.40
2024-01-28T14:03:56.729Z,8.40
2024-01-28T14:07:18.825Z,8.50
2024-01-28T14:10:40.567Z,8.50
2024-01-28T14:14:03.589Z,8.40
2024-01-28T14:17:25.267Z,8.50
2024-01-28T14:20:46.899Z,8.40
2024-01-28T14:24:08.535Z,8.20
2024-01-28T14:27:30.479Z,8.30
2024-01-28T14:30:53.555Z,8.20
2024-01-28T14:34:15.605Z,8.30
2024-01-28T14:37:37.515Z,8.30
2024-01-28T14:40:59.137Z,8.30
2024-01-28T14:44:20.762Z,8.30
2024-01-28T14:47:44.195Z,8.30
2024-01-28T14:51:06.010Z,8.20
2024-01-28T14:54:27.663Z,8.20
2024-01-28T14:57:49.754Z,8.10
2024-01-28T15:01:11.938Z,7.90
2024-01-28T15:04:36.262Z,7.80
2024-01-28T15:07:58.284Z,7.70
2024-01-28T15:11:20.071Z,7.50
2024-01-28T15:14:59.572Z,7.30
2024-01-28T15:18:21.504Z,7.10
2024-01-28T15:21:49.575Z,6.80
2024-01-28T15:25:12.121Z,6.60
2024-01-28T15:28:39.206Z,6.30
2024-01-28T15:32:01.780Z,6.00
2024-01-28T15:35:23.392Z,5.70
2024-01-28T15:38:46.348Z,5.50
2024-01-28T15:42:07.999Z,5.30
2024-01-28T15:45:29.686Z,5.20
2024-01-28T15:48:51.662Z,5.00
2024-01-28T15:52:13.387Z,4.90
2024-01-28T15:55:36.390Z,4.60
2024-01-28T15:59:06.512Z,4.50
2024-01-28T16:02:28.177Z,4.40
2024-01-28T16:05:49.925Z,4.30
2024-01-28T16:09:11.913Z,4.20
2024-01-28T16:12:34.952Z,4.20
2024-01-28T16:15:56.974Z,4.30
2024-01-28T16:19:19.409Z,4.20
2024-01-28T16:22:41.264Z,4.20
2024-01-28T16:26:02.945Z,4.00
2024-01-28T16:29:25.866Z,3.70
2024-01-28T16:32:47.512Z,3.50
2024-01-28T16:36:09.297Z,3.20
2024-01-28T16:39:32.748Z,3.00
2024-01-28T16:42:54.457Z,2.80
2024-01-28T16:46:17.497Z,2.70
2024-01-28T16:49:39.208Z,2.50
2024-01-28T16:53:01.165Z,2.50
2024-01-28T16:56:22.788Z,2.60
2024-01-28T16:59:44.457Z,2.60
2024-01-28T17:03:07.469Z,2.50
2024-01-28T17:06:29.261Z,2.40
2024-01-28T17:09:51.019Z,2.30
2024-01-28T17:13:12.976Z,2.20
2024-01-28T17:16:34.652Z,2.10
2024-01-28T17:19:57.634Z,2.00
2024-01-28T17:23:19.294Z,2.00
2024-01-28T17:26:41.146Z,2.20
2024-01-28T17:30:02.859Z,2.40
2024-01-28T17:33:24.541Z,2.50
2024-01-28T17:36:47.766Z,2.50
2024-01-28T17:40:10.210Z,2.40
2024-01-28T17:43:31.872Z,2.20
2024-01-28T17:46:53.590Z,2.00
2024-01-28T17:50:15.330Z,1.80
2024-01-28T17:53:38.439Z,1.60
2024-01-28T17:57:00.166Z,1.40
2024-01-28T18:00:21.954Z,1.30
2024-01-28T18:03:43.682Z,1.40
2024-01-28T18:07:05.404Z,1.40
2024-01-28T18:10:28.448Z,1.60
2024-01-28T18:13:50.093Z,1.60
2024-01-28T18:17:11.745Z,1.60
2024-01-28T18:20:33.418Z,1.70
2024-01-28T18:23:55.042Z,1.70
2024-01-28T18:27:18.960Z,1.80
2024-01-28T18:30:40.781Z,1.80
2024-01-28T18:34:02.667Z,1.80
2024-01-28T18:37:24.353Z,1.70
2024-01-28T18:40:46.063Z,1.50
2024-01-28T18:44:09.076Z,1.40
2024-01-28T18:47:30.749Z,1.20
2024-01-28T18:50:52.584Z,1.10
2024-01-28T18:54:14.384Z,1.10
2024-01-28T18:57:36.337Z,1.00
2024-01-28T19:00:59.669Z,1.00
2024-01-28T19:04:21.430Z,0.90
2024-01-28T19:07:43.132Z,0.80
2024-01-28T19:11:05.064Z,0.70
2024-01-28T19:14:26.756Z,0.70
2024-01-28T19:17:49.821Z,0.60
2024-01-28T19:21:11.475Z,0.50
2024-01-28T19:24:33.194Z,0.50
2024-01-28T19:27:55.009Z,0.40
2024-01-28T19:31:16.744Z,0.40
2024-01-28T19:34:39.724Z,0.60
2024-01-28T19:38:01.430Z,0.50
2024-01-28T19:41:23.058Z,0.40
2024-01-28T19:44:44.696Z,0.40
2024-01-28T19:48:06.897Z,0.40
2024-01-28T19:51:29.966Z,0.30
2024-01-28T19:54:51.639Z,0.20
2024-01-28T19:58:13.512Z,0.20
2024-01-28T20:01:35.182Z,0.10
2024-01-28T20:04:56.841Z,0.00
2024-01-28T20:08:20.058Z,-0.10
2024-01-28T20:11:41.690Z,-0.20
2024-01-28T20:15:03.502Z,-0.30
2024-01-28T20:18:25.320Z,-0.40
2024-01-28T20:21:47.064Z,-0.50
2024-01-28T20:25:10.388Z,-0.40
2024-01-28T20:28:32.079Z,-0.40
2024-01-28T20:31:53.762Z,-0.40
2024-01-28T20:35:15.461Z,-0.40
2024-01-28T20:38:37.195Z,-0.30
2024-01-28T20:42:00.207Z,-0.40
2024-01-28T20:45:21.871Z,-0.40
2024-01-28T20:48:43.594Z,-0.40
2024-01-28T20:52:05.924Z,-0.50
2024-01-28T20:55:27.634Z,-0.50
2024-01-28T20:58:50.660Z,-0.50
2024-01-28T21:02:16.194Z,-0.40
2024-01-28T21:05:39.452Z,-0.30
2024-01-28T21:09:01.126Z,-0.30
2024-01-28T21:12:23.965Z,-0.40
2024-01-28T21:15:47.116Z,-0.50
2024-01-28T21:19:08.879Z,-0.60
2024-01-28T21:22:32.460Z,-0.70
2024-01-28T21:25:54.785Z,-0.80
2024-01-28T21:29:16.710Z,-0.80
2024-01-28T21:32:39.742Z,-0.80
2024-01-28T21:36:01.390Z,-0.80
2024-01-28T21:39:23.051Z,-0.80
2024-01-28T21:42:44.730Z,-0.80
2024-01-28T21:46:06.408Z,-0.90
2024-01-28T21:49:29.463Z,-0.90
2024-01-28T21:52:51.127Z,-1.00
2024-01-28T21:56:12.812Z,-1.10
2024-01-28T21:59:34.478Z,-1.10
2024-01-28T22:02:56.205Z,-1.20
2024-01-28T22:06:19.352Z,-1.20
2024-01-28T22:09:41.044Z,-1.30
2024-01-28T22:13:02.980Z,-1.30
2024-01-28T22:16:24.713Z,-1.30
2024-01-28T22:19:46.352Z,-1.30
2024-01-28T22:23:09.434Z,-1.30
2024-01-28T22:26:31.089Z,-1.30
2024-01-28T22:29:52.723Z,-1.20
2024-01-28T22:33:14.595Z,-1.10
2024-01-28T22:36:36.288Z,-1.00
2024-01-28T22:39:59.376Z,-1.10
2024-01-28T22:43:21.057Z,-1.20
2024-01-28T22:46:42.742Z,-1.20
2024-01-28T22:50:04.727Z,-1.30
2024-01-28T22:53:26.357Z,-1.30
2024-01-28T22:56:49.338Z,-1.20
2024-01-28T23:00:11.380Z,-1.20
2024-01-28T23:03:33.107Z,-1.20
2024-01-28T23:06:54.852Z,-1.30
2024-01-28T23:10:16.668Z,-1.30
2024-01-28T23:13:39.677Z,-1.40
2024-01-28T23:17:01.408Z,-1.40
2024-01-28T23:20:23.030Z,-1.30
2024-01-28T23:23:44.648Z,-1.40
2024-01-28T23:27:06.459Z,-1.40
2024-01-28T23:30:29.501Z,-1.40
2024-01-28T23:33:51.281Z,-1.40
2024-01-28T23:37:13.090Z,-1.30
2024-01-28T23:40:34.917Z,-1.30
2024-01-28T23:43:56.534Z,-1.30
2024-01-28T23:47:20.599Z,-1.40
2024-01-28T23:50:42.244Z,-1.50
2024-01-28T23:54:03.874Z,-1.50
2024-01-28T23:57:25.566Z,-1.50
